createdAt,value
2018-12-28T00:00:45.403Z,15.60
2018-12-28T00:03:21.350Z,15.40
2018-12-28T00:05:54.267Z,16.30
2018-12-28T00:08:24.454Z,17.03
2018-12-28T00:10:54.608Z,19.03
2018-12-28T00:13:25.030Z,17.43
2018-12-28T00:16:01.837Z,13.53
2018-12-28T00:18:32.357Z,17.70
2018-12-28T00:21:02.835Z,15.70
2018-12-28T00:23:33.596Z,16.93
2018-12-28T00:26:04.119Z,18.20
2018-12-28T00:28:36.734Z,17.70
2018-12-28T00:31:09.617Z,19.43
2018-12-28T00:33:40.018Z,16.67
2018-12-28T00:36:11.974Z,17.30
2018-12-28T00:38:42.717Z,17.77
2018-12-28T00:41:14.933Z,20.70
2018-12-28T00:43:45.198Z,18.50
2018-12-28T00:46:15.746Z,17.70
2018-12-28T00:48:46.502Z,17.97
2018-12-28T00:51:16.818Z,19.80
2018-12-28T00:53:50.286Z,18.77
2018-12-28T00:56:20.968Z,16.67
2018-12-28T00:58:51.798Z,17.00
2018-12-28T01:01:22.209Z,22.50
2018-12-28T01:03:52.511Z,17.50
2018-12-28T01:06:26.153Z,14.07
2018-12-28T01:08:58.917Z,13.60
2018-12-28T01:11:29.552Z,19.07
2018-12-28T01:14:00.544Z,16.83
2018-12-28T01:16:32.045Z,15.53
2018-12-28T01:19:02.913Z,17.00
2018-12-28T01:21:33.190Z,17.37
2018-12-28T01:24:06.683Z,17.87
2018-12-28T01:26:42.061Z,14.23
2018-12-28T01:29:12.716Z,20.87
2018-12-28T01:31:43.079Z,15.20
2018-12-28T01:34:16.386Z,15.50
2018-12-28T01:36:46.613Z,14.27
2018-12-28T01:39:21.043Z,16.40
2018-12-28T01:41:51.063Z,15.47
2018-12-28T01:44:24.667Z,14.57
2018-12-28T01:46:55.101Z,17.80
2018-12-28T01:49:28.788Z,19.40
2018-12-28T01:51:59.125Z,14.20
2018-12-28T01:54:29.355Z,14.53
2018-12-28T01:57:00.226Z,20.30
2018-12-28T01:59:30.645Z,13.60
2018-12-28T02:02:07.882Z,18.03
2018-12-28T02:04:38.345Z,14.03
2018-12-28T02:07:08.800Z,18.37
2018-12-28T02:09:39.275Z,17.93
2018-12-28T02:12:09.406Z,15.53
2018-12-28T02:14:41.066Z,15.83
2018-12-28T02:17:12.051Z,17.13
2018-12-28T02:19:42.351Z,14.20
2018-12-28T02:22:12.687Z,14.50
2018-12-28T02:24:43.085Z,20.43
2018-12-28T02:27:13.383Z,19.60
2018-12-28T02:29:44.706Z,15.77
2018-12-28T02:32:16.826Z,16.73
2018-12-28T02:34:47.423Z,18.23
2018-12-28T02:37:17.921Z,24.80
2018-12-28T02:39:53.133Z,15.33
2018-12-28T02:42:23.377Z,13.53
2018-12-28T02:44:53.944Z,18.70
2018-12-28T02:47:25.080Z,15.33
2018-12-28T02:49:55.302Z,13.77
2018-12-28T02:52:25.665Z,18.73
2018-12-28T02:54:56.357Z,18.23
2018-12-28T02:57:26.687Z,15.47
2018-12-28T02:59:56.907Z,17.10
2018-12-28T03:02:27.827Z,17.20
2018-12-28T03:04:58.294Z,13.67
2018-12-28T03:07:28.454Z,16.47
2018-12-28T03:09:59.417Z,17.73
2018-12-28T03:12:29.745Z,14.43
2018-12-28T03:15:00.431Z,18.73
2018-12-28T03:17:32.405Z,20.03
2018-12-28T03:20:02.754Z,16.23
2018-12-28T03:22:33.061Z,17.57
2018-12-28T03:25:04.469Z,18.80
2018-12-28T03:27:36.265Z,16.87
2018-12-28T03:30:06.833Z,18.70
2018-12-28T03:32:37.759Z,15.70
2018-12-28T03:35:08.170Z,19.00
2018-12-28T03:37:38.502Z,14.80
2018-12-28T03:40:09.269Z,17.07
2018-12-28T03:42:39.992Z,16.93
2018-12-28T03:45:10.876Z,16.67
2018-12-28T03:47:41.285Z,20.90
2018-12-28T03:50:11.596Z,15.37
2018-12-28T03:52:42.155Z,18.10
2018-12-28T03:55:13.025Z,19.40
2018-12-28T03:57:43.487Z,16.43
2018-12-28T04:00:13.880Z,19.37
2018-12-28T04:02:45.518Z,18.63
2018-12-28T04:05:16.234Z,16.00
2018-12-28T04:07:46.511Z,15.57
2018-12-28T04:10:18.769Z,18.30
2018-12-28T04:12:49.011Z,20.93
2018-12-28T04:15:19.337Z,19.23
2018-12-28T04:17:50.149Z,19.57
2018-12-28T04:20:20.410Z,15.93
2018-12-28T04:22:50.907Z,19.90
2018-12-28T04:25:23.613Z,19.87
2018-12-28T04:27:54.035Z,17.67
2018-12-28T04:30:24.393Z,21.60
2018-12-28T04:32:55.425Z,20.20
2018-12-28T04:35:25.711Z,18.33
2018-12-28T04:37:56.048Z,16.90
2018-12-28T04:40:29.376Z,18.00
2018-12-28T04:42:59.787Z,19.97
2018-12-28T04:45:29.967Z,19.70
2018-12-28T04:48:00.275Z,18.47
2018-12-28T04:50:31.446Z,20.03
2018-12-28T04:53:03.306Z,21.43
2018-12-28T04:55:33.846Z,19.30
2018-12-28T04:58:04.503Z,15.90
2018-12-28T05:00:40.885Z,20.47
2018-12-28T05:03:20.960Z,19.07
2018-12-28T05:06:21.128Z,20.93
2018-12-28T05:09:21.450Z,19.87
2018-12-28T05:12:06.718Z,14.50
2018-12-28T05:15:03.136Z,16.83
2018-12-28T05:18:02.386Z,15.17
2018-12-28T05:20:48.042Z,21.13
2018-12-28T05:23:59.223Z,20.53
2018-12-28T05:26:43.179Z,19.73
2018-12-28T05:29:34.490Z,20.23
2018-12-28T05:32:36.414Z,18.87
2018-12-28T05:35:07.211Z,19.40
2018-12-28T05:37:37.706Z,19.10
2018-12-28T05:40:08.079Z,18.20
2018-12-28T05:42:38.586Z,19.33
2018-12-28T05:45:09.653Z,17.63
2018-12-28T05:47:39.861Z,19.03
2018-12-28T05:50:10.561Z,17.73
2018-12-28T05:52:41.177Z,19.83
2018-12-28T05:55:11.589Z,17.83
2018-12-28T05:57:41.937Z,18.03
2018-12-28T06:00:12.858Z,23.40
2018-12-28T06:02:44.776Z,21.47
2018-12-28T06:05:16.865Z,19.10
2018-12-28T06:07:49.137Z,17.13
2018-12-28T06:10:19.458Z,21.90
2018-12-28T06:12:50.316Z,19.97
2018-12-28T06:15:20.849Z,21.23
2018-12-28T06:17:51.281Z,18.00
2018-12-28T06:20:21.692Z,25.60
2018-12-28T06:22:52.177Z,21.00
2018-12-28T06:25:22.820Z,17.50
2018-12-28T06:27:53.421Z,18.03
2018-12-28T06:30:24.407Z,20.90
2018-12-28T06:32:54.693Z,21.40
2018-12-28T06:35:24.842Z,23.83
2018-12-28T06:37:55.839Z,20.43
2018-12-28T06:40:26.481Z,22.30
2018-12-28T06:42:56.861Z,23.47
2018-12-28T06:45:27.596Z,26.07
2018-12-28T06:47:58.197Z,16.23
2018-12-28T06:50:28.521Z,22.57
2018-12-28T06:54:04.169Z,20.10
2018-12-28T06:57:27.349Z,22.40
2018-12-28T07:00:37.630Z,22.07
2018-12-28T07:03:43.205Z,18.50
2018-12-28T07:07:23.326Z,20.93
2018-12-28T07:10:47.493Z,16.33
2018-12-28T07:14:04.884Z,18.50
2018-12-28T07:17:08.174Z,21.53
2018-12-28T07:20:23.709Z,19.83
2018-12-28T07:23:33.688Z,26.37
2018-12-28T07:27:02.287Z,19.50
2018-12-28T07:30:27.800Z,21.70
2018-12-28T07:33:34.283Z,18.97
2018-12-28T07:37:10.477Z,31.63
2018-12-28T07:40:16.812Z,19.37
2018-12-28T07:43:36.016Z,20.57
2018-12-28T07:46:34.694Z,22.10
2018-12-28T07:49:56.482Z,27.00
2018-12-28T07:53:07.301Z,19.07
2018-12-28T07:56:15.776Z,24.57
2018-12-28T07:59:20.349Z,21.50
2018-12-28T08:02:35.715Z,25.83
2018-12-28T08:06:01.307Z,22.50
2018-12-28T08:09:07.949Z,20.60
2018-12-28T08:12:06.300Z,22.67
2018-12-28T08:15:26.619Z,20.63
2018-12-28T08:18:48.434Z,24.73
2018-12-28T08:21:53.876Z,26.30
2018-12-28T08:25:03.633Z,23.07
2018-12-28T08:28:10.332Z,26.37
2018-12-28T08:31:26.821Z,29.20
2018-12-28T08:34:37.006Z,24.60
2018-12-28T08:37:47.017Z,25.23
2018-12-28T08:40:42.593Z,22.40
2018-12-28T08:44:04.445Z,25.13
2018-12-28T08:47:30.228Z,26.87
2018-12-28T08:50:56.597Z,21.20
2018-12-28T08:54:28.626Z,23.10
2018-12-28T08:57:38.566Z,24.33
2018-12-28T09:00:52.223Z,25.50
2018-12-28T09:04:07.196Z,27.13
2018-12-28T09:07:22.369Z,23.40
2018-12-28T09:10:49.637Z,25.90
2018-12-28T09:14:04.690Z,24.23
2018-12-28T09:17:28.585Z,23.60
2018-12-28T09:20:35.393Z,24.13
2018-12-28T09:23:39.746Z,23.30
2018-12-28T09:26:49.730Z,24.80
2018-12-28T09:30:18.703Z,28.77
2018-12-28T09:33:26.317Z,24.77
2018-12-28T09:36:43.531Z,25.70
2018-12-28T09:39:49.652Z,27.67
2018-12-28T09:43:03.006Z,26.03
2018-12-28T09:46:03.869Z,25.37
2018-12-28T09:49:02.590Z,27.23
2018-12-28T09:52:05.723Z,29.10
2018-12-28T09:55:32.288Z,23.10
2018-12-28T09:58:38.595Z,26.87
2018-12-28T10:01:58.573Z,25.27
2018-12-28T10:05:08.690Z,32.80
2018-12-28T10:08:19.123Z,24.50
2018-12-28T10:11:23.940Z,31.60
2018-12-28T10:14:24.404Z,26.97
2018-12-28T10:16:54.729Z,25.77
2018-12-28T10:19:25.036Z,30.00
2018-12-28T10:21:55.741Z,27.03
2018-12-28T10:24:26.463Z,24.93
2018-12-28T10:26:56.700Z,30.23
2018-12-28T10:29:29.612Z,28.27
2018-12-28T10:32:02.587Z,31.97
2018-12-28T10:34:33.247Z,28.57
2018-12-28T10:37:05.334Z,32.00
2018-12-28T10:39:35.482Z,31.20
2018-12-28T10:42:06.652Z,27.60
2018-12-28T10:44:37.227Z,32.13
2018-12-28T10:47:07.765Z,28.87
2018-12-28T10:49:38.673Z,27.50
2018-12-28T10:52:09.261Z,28.47
2018-12-28T10:54:39.517Z,33.00
2018-12-28T10:57:10.306Z,32.97
2018-12-28T10:59:41.619Z,28.63
2018-12-28T11:02:16.660Z,26.23
2018-12-28T11:04:52.818Z,28.80
2018-12-28T11:07:23.208Z,34.03
2018-12-28T11:09:53.894Z,27.83
2018-12-28T11:12:24.213Z,28.17
2018-12-28T11:14:57.310Z,32.03
2018-12-28T11:17:32.860Z,29.63
2018-12-28T11:20:06.480Z,28.93
2018-12-28T11:22:38.685Z,28.23
2018-12-28T11:25:09.290Z,26.30
2018-12-28T11:27:39.867Z,31.93
2018-12-28T11:30:10.089Z,33.33
2018-12-28T11:32:40.450Z,28.73
2018-12-28T11:35:11.153Z,30.53
2018-12-28T11:37:44.206Z,29.40
2018-12-28T11:40:14.587Z,29.40
2018-12-28T11:42:47.957Z,31.13
2018-12-28T11:45:24.686Z,28.93
2018-12-28T11:47:54.849Z,28.90
2018-12-28T11:50:25.226Z,27.97
2018-12-28T11:52:55.629Z,34.80
2018-12-28T11:55:29.727Z,30.67
2018-12-28T11:58:01.617Z,38.90
2018-12-28T12:00:31.880Z,30.50
2018-12-28T12:03:02.953Z,29.47
2018-12-28T12:05:35.540Z,29.53
2018-12-28T12:08:08.900Z,31.67
2018-12-28T12:10:39.387Z,35.13
2018-12-28T12:13:09.691Z,31.20
2018-12-28T12:15:40.098Z,34.17
2018-12-28T12:18:13.495Z,35.30
2018-12-28T12:20:45.972Z,32.37
2018-12-28T12:23:16.367Z,34.40
2018-12-28T12:25:46.653Z,31.47
2018-12-28T12:28:18.660Z,33.00
2018-12-28T12:30:49.342Z,28.97
2018-12-28T12:33:23.146Z,34.37
2018-12-28T12:35:53.550Z,27.80
2018-12-28T12:38:26.853Z,32.87
2018-12-28T12:40:57.145Z,30.57
2018-12-28T12:43:27.715Z,36.37
2018-12-28T12:46:01.676Z,36.20
2018-12-28T12:48:31.914Z,30.77
2018-12-28T12:51:03.794Z,36.67
2018-12-28T12:53:34.472Z,36.00
2018-12-28T12:56:04.849Z,32.93
2018-12-28T12:58:35.113Z,35.43
2018-12-28T13:01:07.273Z,32.20
2018-12-28T13:03:38.644Z,31.57
2018-12-28T13:06:11.374Z,31.50
2018-12-28T13:08:46.064Z,30.37
2018-12-28T13:11:16.227Z,34.17
2018-12-28T13:13:47.621Z,30.47
2018-12-28T13:16:18.498Z,37.53
2018-12-28T13:18:48.665Z,36.80
2018-12-28T13:21:20.760Z,29.53
2018-12-28T13:23:54.114Z,36.40
2018-12-28T13:26:24.325Z,31.57
2018-12-28T13:28:56.079Z,39.00
2018-12-28T13:31:27.869Z,36.67
2018-12-28T13:34:01.177Z,41.90
2018-12-28T13:36:34.882Z,34.97
2018-12-28T13:39:09.543Z,34.70
2018-12-28T13:41:40.179Z,32.80
2018-12-28T13:44:10.734Z,38.50
2018-12-28T13:46:46.318Z,34.00
2018-12-28T13:49:16.785Z,33.90
2018-12-28T13:51:49.317Z,34.23
2018-12-28T13:54:21.841Z,38.77
2018-12-28T13:56:52.262Z,33.90
2018-12-28T13:59:23.012Z,34.70
2018-12-28T14:01:57.250Z,36.60
2018-12-28T14:04:35.281Z,37.37
2018-12-28T14:07:05.380Z,37.40
2018-12-28T14:09:36.113Z,43.40
2018-12-28T14:12:06.526Z,38.77
2018-12-28T14:14:38.105Z,36.50
2018-12-28T14:17:14.401Z,35.47
2018-12-28T14:19:47.525Z,39.63
2018-12-28T14:22:20.297Z,33.70
2018-12-28T14:24:50.558Z,36.47
2018-12-28T14:27:22.476Z,40.03
2018-12-28T14:29:52.733Z,34.07
2018-12-28T14:32:22.934Z,38.47
2018-12-28T14:34:54.179Z,39.63
2018-12-28T14:37:25.017Z,32.07
2018-12-28T14:39:59.947Z,34.17
2018-12-28T14:42:36.381Z,37.83
2018-12-28T14:45:09.609Z,38.97
2018-12-28T14:47:39.926Z,34.10
2018-12-28T14:50:13.560Z,36.90
2018-12-28T14:52:46.724Z,33.47
2018-12-28T14:55:24.478Z,37.70
2018-12-28T14:57:55.157Z,37.20
2018-12-28T15:00:50.995Z,34.70
2018-12-28T15:03:21.490Z,36.20
2018-12-28T15:05:53.105Z,34.90
2018-12-28T15:08:26.504Z,41.00
2018-12-28T15:10:59.817Z,31.53
2018-12-28T15:13:32.213Z,38.73
2018-12-28T15:16:05.634Z,41.80
2018-12-28T15:18:36.198Z,35.23
2018-12-28T15:21:08.776Z,33.40
2018-12-28T15:23:42.114Z,35.83
2018-12-28T15:26:12.417Z,37.03
2018-12-28T15:28:44.020Z,36.27
2018-12-28T15:31:16.234Z,31.53
2018-12-28T15:33:48.812Z,36.77
2018-12-28T15:36:19.361Z,34.63
2018-12-28T15:38:49.631Z,32.93
2018-12-28T15:41:21.097Z,35.00
2018-12-28T15:43:53.186Z,38.73
2018-12-28T15:46:23.609Z,43.77
2018-12-28T15:48:56.596Z,48.60
2018-12-28T15:51:26.969Z,42.27
2018-12-28T15:53:57.274Z,36.17
2018-12-28T15:56:28.834Z,37.77
2018-12-28T15:58:59.150Z,40.47
2018-12-28T16:01:35.423Z,48.23
2018-12-28T16:04:11.214Z,36.33
2018-12-28T16:06:41.781Z,41.53
2018-12-28T16:09:13.934Z,39.00
2018-12-28T16:11:44.262Z,38.27
2018-12-28T16:14:14.982Z,40.30
2018-12-28T16:16:48.350Z,37.97
2018-12-28T16:19:20.097Z,40.70
2018-12-28T16:21:50.456Z,42.93
2018-12-28T16:24:21.187Z,46.53
2018-12-28T16:26:52.015Z,41.70
2018-12-28T16:29:22.357Z,40.43
2018-12-28T16:31:53.356Z,35.80
2018-12-28T16:34:23.897Z,40.40
2018-12-28T16:36:54.116Z,38.80
2018-12-28T16:39:24.270Z,36.50
2018-12-28T16:41:55.078Z,41.07
2018-12-28T16:44:36.910Z,38.50
2018-12-28T16:47:14.352Z,37.53
2018-12-28T16:49:46.401Z,35.40
2018-12-28T16:52:16.854Z,42.57
2018-12-28T16:54:48.690Z,43.37
2018-12-28T16:57:20.722Z,46.87
2018-12-28T16:59:54.567Z,40.87
2018-12-28T17:02:24.777Z,37.47
2018-12-28T17:04:57.420Z,35.10
2018-12-28T17:07:33.469Z,44.67
2018-12-28T17:10:08.733Z,41.87
2018-12-28T17:12:46.827Z,45.17
2018-12-28T17:15:24.537Z,42.10
2018-12-28T17:17:54.973Z,38.03
2018-12-28T17:20:25.949Z,47.13
2018-12-28T17:22:56.197Z,43.60
2018-12-28T17:25:26.951Z,49.40
2018-12-28T17:28:06.627Z,43.13
2018-12-28T17:30:39.305Z,43.33
2018-12-28T17:33:12.292Z,49.40
2018-12-28T17:35:42.907Z,46.90
2018-12-28T17:38:15.326Z,38.23
2018-12-28T17:40:45.496Z,45.67
2018-12-28T17:43:20.038Z,53.00
2018-12-28T17:45:51.769Z,53.43
2018-12-28T17:48:29.882Z,46.03
2018-12-28T17:51:01.879Z,52.43
2018-12-28T17:53:32.478Z,42.80
2018-12-28T17:56:05.723Z,51.77
2018-12-28T17:58:35.545Z,49.87
2018-12-28T18:01:05.755Z,52.60
2018-12-28T18:03:36.762Z,51.50
2018-12-28T18:06:06.969Z,50.97
2018-12-28T18:08:38.458Z,45.97
2018-12-28T18:11:08.976Z,52.47
2018-12-28T18:13:42.685Z,51.97
2018-12-28T18:16:16.017Z,51.33
2018-12-28T18:18:49.074Z,48.07
2018-12-28T18:21:19.987Z,53.50
2018-12-28T18:23:50.373Z,55.10
2018-12-28T18:26:20.819Z,53.23
2018-12-28T18:28:51.294Z,51.30
2018-12-28T18:31:25.089Z,64.73
2018-12-28T18:33:55.834Z,52.30
2018-12-28T18:36:26.606Z,67.27
2018-12-28T18:38:58.569Z,55.57
2018-12-28T18:41:28.993Z,54.83
2018-12-28T18:44:04.826Z,59.63
2018-12-28T18:46:35.284Z,62.73
2018-12-28T18:49:05.784Z,60.97
2018-12-28T18:51:39.625Z,63.57
2018-12-28T18:54:10.818Z,64.73
2018-12-28T18:56:44.525Z,63.63
2018-12-28T18:59:14.554Z,63.60
2018-12-28T19:01:45.634Z,59.57
2018-12-28T19:04:18.554Z,67.13
2018-12-28T19:06:51.295Z,69.90
2018-12-28T19:09:22.272Z,75.00
2018-12-28T19:11:53.465Z,69.67
2018-12-28T19:14:24.218Z,65.17
2018-12-28T19:16:56.518Z,53.63
2018-12-28T19:19:26.813Z,53.87
2018-12-28T19:21:59.051Z,59.43
2018-12-28T19:24:32.155Z,71.50
2018-12-28T19:27:02.441Z,61.80
2018-12-28T19:29:33.506Z,60.00
2018-12-28T19:32:03.869Z,60.43
2018-12-28T19:34:34.360Z,56.13
2018-12-28T19:37:06.868Z,72.07
2018-12-28T19:39:40.055Z,58.77
2018-12-28T19:42:13.324Z,58.73
2018-12-28T19:44:46.278Z,60.67
2018-12-28T19:47:16.642Z,51.80
2018-12-28T19:49:47.365Z,55.40
2018-12-28T19:52:19.154Z,53.60
2018-12-28T19:54:49.551Z,56.97
2018-12-28T19:57:22.352Z,60.13
2018-12-28T19:59:53.602Z,54.53
2018-12-28T20:02:24.581Z,55.43
2018-12-28T20:04:56.859Z,53.47
2018-12-28T20:07:27.434Z,66.00
2018-12-28T20:09:57.957Z,57.80
2018-12-28T20:12:28.254Z,53.37
2018-12-28T20:14:59.416Z,60.93
2018-12-28T20:17:32.964Z,55.93
2018-12-28T20:20:08.878Z,56.03
2018-12-28T20:22:42.475Z,52.30
2018-12-28T20:25:18.059Z,55.90
2018-12-28T20:27:52.613Z,57.03
2018-12-28T20:30:30.669Z,54.00
2018-12-28T20:33:03.917Z,63.07
2018-12-28T20:35:38.916Z,54.10
2018-12-28T20:38:12.236Z,52.80
2018-12-28T20:40:43.257Z,52.37
2018-12-28T20:43:14.847Z,55.63
2018-12-28T20:45:45.745Z,56.40
2018-12-28T20:48:21.892Z,57.67
2018-12-28T20:50:52.534Z,52.77
2018-12-28T20:53:28.658Z,56.70
2018-12-28T20:56:02.772Z,55.10
2018-12-28T20:58:34.573Z,52.83
2018-12-28T21:01:06.551Z,59.17
2018-12-28T21:03:36.710Z,59.90
2018-12-28T21:06:09.510Z,51.83
2018-12-28T21:08:39.770Z,53.43
2018-12-28T21:11:10.117Z,63.10
2018-12-28T21:13:40.553Z,51.03
2018-12-28T21:16:12.505Z,53.40
2018-12-28T21:18:47.792Z,57.60
2018-12-28T21:21:20.234Z,62.80
2018-12-28T21:23:53.287Z,58.67
2018-12-28T21:26:23.759Z,49.93
2018-12-28T21:28:54.050Z,54.23
2018-12-28T21:31:24.936Z,58.93
2018-12-28T21:34:03.917Z,52.90
2018-12-28T21:36:34.839Z,60.40
2018-12-28T21:39:07.785Z,56.60
2018-12-28T21:41:38.189Z,48.43
2018-12-28T21:44:08.915Z,52.10
2018-12-28T21:46:39.263Z,60.33
2018-12-28T21:49:13.184Z,57.47
2018-12-28T21:51:44.889Z,58.90
2018-12-28T21:54:15.210Z,61.03
2018-12-28T21:56:45.505Z,60.23
2018-12-28T21:59:15.693Z,61.23
2018-12-28T22:01:54.025Z,56.97
2018-12-28T22:04:24.441Z,60.50
2018-12-28T22:06:54.739Z,71.70
2018-12-28T22:09:29.020Z,61.07
2018-12-28T22:12:05.243Z,61.33
2018-12-28T22:14:35.525Z,67.20
2018-12-28T22:17:06.216Z,60.07
2018-12-28T22:19:38.731Z,56.87
2018-12-28T22:22:11.357Z,55.20
2018-12-28T22:24:44.821Z,65.47
2018-12-28T22:27:16.254Z,66.33
2018-12-28T22:29:47.316Z,60.97
2018-12-28T22:32:17.548Z,53.70
2018-12-28T22:34:49.206Z,61.43
2018-12-28T22:37:19.441Z,64.77
2018-12-28T22:39:52.836Z,61.20
2018-12-28T22:42:25.748Z,59.40
2018-12-28T22:44:58.821Z,65.10
2018-12-28T22:47:30.128Z,65.27
2018-12-28T22:50:00.673Z,58.63
2018-12-28T22:52:34.101Z,66.43
2018-12-28T22:55:07.589Z,62.30
2018-12-28T22:57:37.794Z,63.93
2018-12-28T23:00:11.258Z,53.20
2018-12-28T23:02:45.036Z,57.50
2018-12-28T23:05:15.713Z,56.80
2018-12-28T23:07:45.870Z,57.90
2018-12-28T23:10:16.626Z,52.97
2018-12-28T23:12:50.009Z,60.80
2018-12-28T23:15:24.653Z,58.80
2018-12-28T23:17:52.477Z,61.53
2018-12-28T23:20:23.248Z,58.90
2018-12-28T23:22:56.532Z,60.13
2018-12-28T23:25:26.729Z,63.47
2018-12-28T23:27:57.188Z,60.13
2018-12-28T23:30:27.655Z,55.00
2018-12-28T23:32:58.053Z,65.40
2018-12-28T23:35:32.470Z,66.43
2018-12-28T23:38:02.957Z,60.40
2018-12-28T23:40:35.134Z,61.13
2018-12-28T23:43:05.809Z,67.23
2018-12-28T23:45:41.454Z,63.90
2018-12-28T23:48:11.826Z,62.03
2018-12-28T23:50:44.289Z,63.67
2018-12-28T23:53:14.710Z,63.27
2018-12-28T23:55:45.046Z,64.10
2018-12-28T23:58:17.263Z,62.00
